sensor_id;sensor_type;location;lat;lon;timestamp;P1;durP1;ratioP1;P2;durP2;ratioP2
52816;SDS011;38687;43.330;21.924;2022-08-14T00:01:59;19.60;;;14.43;;
52816;SDS011;38687;43.330;21.924;2022-08-14T00:04:24;18.08;;;14.68;;
52816;SDS011;38687;43.330;21.924;2022-08-14T00:06:50;17.67;;;15.57;;
52816;SDS011;38687;43.330;21.924;2022-08-14T00:09:15;18.33;;;15.38;;
52816;SDS011;38687;43.330;21.924;2022-08-14T00:11:41;19.42;;;15.10;;
52816;SDS011;38687;43.330;21.924;2022-08-14T00:14:06;18.75;;;15.07;;
52816;SDS011;38687;43.330;21.924;2022-08-14T00:16:32;20.75;;;16.00;;
52816;SDS011;38687;43.330;21.924;2022-08-14T00:18:58;23.13;;;16.60;;
52816;SDS011;38687;43.330;21.924;2022-08-14T00:21:24;20.52;;;16.70;;
52816;SDS011;38687;43.330;21.924;2022-08-14T00:23:50;20.27;;;16.80;;
52816;SDS011;38687;43.330;21.924;2022-08-14T00:26:17;21.17;;;16.83;;
52816;SDS011;38687;43.330;21.924;2022-08-14T00:28:43;21.13;;;16.90;;
52816;SDS011;38687;43.330;21.924;2022-08-14T00:31:08;21.00;;;17.75;;
52816;SDS011;38687;43.330;21.924;2022-08-14T00:33:34;23.08;;;17.95;;
52816;SDS011;38687;43.330;21.924;2022-08-14T00:35:59;22.20;;;17.83;;
52816;SDS011;38687;43.330;21.924;2022-08-14T00:38:25;20.85;;;17.80;;
52816;SDS011;38687;43.330;21.924;2022-08-14T00:40:56;21.30;;;18.20;;
52816;SDS011;38687;43.330;21.924;2022-08-14T00:43:21;22.40;;;16.98;;
52816;SDS011;38687;43.330;21.924;2022-08-14T00:45:47;22.00;;;18.67;;
52816;SDS011;38687;43.330;21.924;2022-08-14T00:48:13;23.25;;;17.90;;
52816;SDS011;38687;43.330;21.924;2022-08-14T00:50:41;23.85;;;18.80;;
52816;SDS011;38687;43.330;21.924;2022-08-14T00:53:06;22.80;;;18.58;;
52816;SDS011;38687;43.330;21.924;2022-08-14T00:55:34;22.83;;;18.10;;
52816;SDS011;38687;43.330;21.924;2022-08-14T00:58:00;24.23;;;19.13;;
52816;SDS011;38687;43.330;21.924;2022-08-14T01:00:48;26.73;;;19.58;;
52816;SDS011;38687;43.330;21.924;2022-08-14T01:03:14;25.58;;;19.45;;
52816;SDS011;38687;43.330;21.924;2022-08-14T01:05:41;22.45;;;17.25;;
52816;SDS011;38687;43.330;21.924;2022-08-14T01:08:14;22.20;;;18.27;;
52816;SDS011;38687;43.330;21.924;2022-08-14T01:10:44;20.05;;;17.70;;
52816;SDS011;38687;43.330;21.924;2022-08-14T01:13:22;20.25;;;16.60;;
52816;SDS011;38687;43.330;21.924;2022-08-14T01:15:53;19.67;;;16.55;;
52816;SDS011;38687;43.330;21.924;2022-08-14T01:18:22;19.80;;;15.93;;
52816;SDS011;38687;43.330;21.924;2022-08-14T01:21:07;18.83;;;14.43;;
52816;SDS011;38687;43.330;21.924;2022-08-14T01:23:37;16.90;;;14.77;;
52816;SDS011;38687;43.330;21.924;2022-08-14T01:26:04;17.10;;;14.40;;
52816;SDS011;38687;43.330;21.924;2022-08-14T01:28:30;17.45;;;14.73;;
52816;SDS011;38687;43.330;21.924;2022-08-14T01:31:00;17.98;;;13.40;;
52816;SDS011;38687;43.330;21.924;2022-08-14T01:33:29;17.83;;;14.07;;
52816;SDS011;38687;43.330;21.924;2022-08-14T01:35:56;14.90;;;13.27;;
52816;SDS011;38687;43.330;21.924;2022-08-14T01:38:24;16.15;;;13.73;;
52816;SDS011;38687;43.330;21.924;2022-08-14T01:40:52;14.10;;;11.88;;
52816;SDS011;38687;43.330;21.924;2022-08-14T01:43:17;15.60;;;12.48;;
52816;SDS011;38687;43.330;21.924;2022-08-14T01:45:43;13.25;;;11.25;;
52816;SDS011;38687;43.330;21.924;2022-08-14T01:48:09;11.73;;;10.30;;
52816;SDS011;38687;43.330;21.924;2022-08-14T01:50:36;11.70;;;9.55;;
52816;SDS011;38687;43.330;21.924;2022-08-14T01:53:01;9.60;;;8.50;;
52816;SDS011;38687;43.330;21.924;2022-08-14T01:55:27;10.20;;;7.97;;
52816;SDS011;38687;43.330;21.924;2022-08-14T01:57:56;10.63;;;8.27;;
52816;SDS011;38687;43.330;21.924;2022-08-14T02:00:22;10.75;;;8.68;;
52816;SDS011;38687;43.330;21.924;2022-08-14T02:02:48;11.68;;;8.57;;
52816;SDS011;38687;43.330;21.924;2022-08-14T02:05:14;8.75;;;7.43;;
52816;SDS011;38687;43.330;21.924;2022-08-14T02:07:40;10.32;;;7.78;;
52816;SDS011;38687;43.330;21.924;2022-08-14T02:10:06;9.82;;;7.82;;
52816;SDS011;38687;43.330;21.924;2022-08-14T02:12:33;10.38;;;8.13;;
52816;SDS011;38687;43.330;21.924;2022-08-14T02:14:58;8.07;;;7.13;;
52816;SDS011;38687;43.330;21.924;2022-08-14T02:17:25;8.15;;;6.95;;
52816;SDS011;38687;43.330;21.924;2022-08-14T02:19:51;8.75;;;6.88;;
52816;SDS011;38687;43.330;21.924;2022-08-14T02:22:17;8.75;;;7.18;;
52816;SDS011;38687;43.330;21.924;2022-08-14T02:24:43;8.70;;;7.18;;
52816;SDS011;38687;43.330;21.924;2022-08-14T02:27:09;8.68;;;6.53;;
52816;SDS011;38687;43.330;21.924;2022-08-14T02:29:36;8.95;;;7.13;;
52816;SDS011;38687;43.330;21.924;2022-08-14T02:32:02;8.80;;;7.25;;
52816;SDS011;38687;43.330;21.924;2022-08-14T02:34:32;9.52;;;7.88;;
52816;SDS011;38687;43.330;21.924;2022-08-14T02:36:59;8.30;;;6.43;;
52816;SDS011;38687;43.330;21.924;2022-08-14T02:39:27;7.80;;;7.00;;
52816;SDS011;38687;43.330;21.924;2022-08-14T02:41:54;8.90;;;7.47;;
52816;SDS011;38687;43.330;21.924;2022-08-14T02:44:19;6.50;;;5.90;;
52816;SDS011;38687;43.330;21.924;2022-08-14T02:46:47;6.47;;;5.80;;
52816;SDS011;38687;43.330;21.924;2022-08-14T02:49:13;7.57;;;5.93;;
52816;SDS011;38687;43.330;21.924;2022-08-14T02:51:39;8.10;;;6.10;;
52816;SDS011;38687;43.330;21.924;2022-08-14T02:54:05;6.60;;;5.72;;
52816;SDS011;38687;43.330;21.924;2022-08-14T02:56:32;6.38;;;5.75;;
52816;SDS011;38687;43.330;21.924;2022-08-14T02:58:57;7.68;;;5.80;;
52816;SDS011;38687;43.330;21.924;2022-08-14T03:01:26;9.75;;;6.22;;
52816;SDS011;38687;43.330;21.924;2022-08-14T03:03:52;7.80;;;6.22;;
52816;SDS011;38687;43.330;21.924;2022-08-14T03:06:20;7.55;;;6.40;;
52816;SDS011;38687;43.330;21.924;2022-08-14T03:08:48;7.00;;;6.30;;
52816;SDS011;38687;43.330;21.924;2022-08-14T03:11:14;8.43;;;7.25;;
52816;SDS011;38687;43.330;21.924;2022-08-14T03:13:43;8.43;;;7.10;;
52816;SDS011;38687;43.330;21.924;2022-08-14T03:16:13;8.25;;;7.07;;
52816;SDS011;38687;43.330;21.924;2022-08-14T03:18:43;7.53;;;6.72;;
52816;SDS011;38687;43.330;21.924;2022-08-14T03:21:11;7.18;;;6.47;;
52816;SDS011;38687;43.330;21.924;2022-08-14T03:23:43;7.15;;;6.45;;
52816;SDS011;38687;43.330;21.924;2022-08-14T03:26:11;9.35;;;7.28;;
52816;SDS011;38687;43.330;21.924;2022-08-14T03:28:40;8.02;;;6.75;;
52816;SDS011;38687;43.330;21.924;2022-08-14T03:31:06;7.35;;;6.63;;
52816;SDS011;38687;43.330;21.924;2022-08-14T03:33:33;7.68;;;6.85;;
52816;SDS011;38687;43.330;21.924;2022-08-14T03:36:02;7.85;;;6.50;;
52816;SDS011;38687;43.330;21.924;2022-08-14T03:38:32;7.35;;;6.57;;
52816;SDS011;38687;43.330;21.924;2022-08-14T03:40:58;7.60;;;6.63;;
52816;SDS011;38687;43.330;21.924;2022-08-14T03:43:23;7.07;;;6.38;;
52816;SDS011;38687;43.330;21.924;2022-08-14T03:45:49;7.93;;;7.10;;
52816;SDS011;38687;43.330;21.924;2022-08-14T03:48:15;8.65;;;7.40;;
52816;SDS011;38687;43.330;21.924;2022-08-14T03:50:47;8.57;;;7.55;;
52816;SDS011;38687;43.330;21.924;2022-08-14T03:53:16;10.38;;;8.40;;
52816;SDS011;38687;43.330;21.924;2022-08-14T03:55:42;8.82;;;7.90;;
52816;SDS011;38687;43.330;21.924;2022-08-14T03:58:08;10.90;;;8.25;;
52816;SDS011;38687;43.330;21.924;2022-08-14T04:00:35;11.05;;;8.35;;
52816;SDS011;38687;43.330;21.924;2022-08-14T04:03:02;8.68;;;6.90;;
52816;SDS011;38687;43.330;21.924;2022-08-14T04:05:33;8.50;;;7.55;;
52816;SDS011;38687;43.330;21.924;2022-08-14T04:08:03;9.50;;;7.45;;
52816;SDS011;38687;43.330;21.924;2022-08-14T04:10:30;8.90;;;7.45;;
52816;SDS011;38687;43.330;21.924;2022-08-14T04:12:56;8.60;;;7.03;;
52816;SDS011;38687;43.330;21.924;2022-08-14T04:15:24;8.63;;;7.32;;
52816;SDS011;38687;43.330;21.924;2022-08-14T04:17:51;8.65;;;7.22;;
52816;SDS011;38687;43.330;21.924;2022-08-14T04:20:19;7.70;;;6.35;;
52816;SDS011;38687;43.330;21.924;2022-08-14T04:22:46;10.27;;;7.47;;
52816;SDS011;38687;43.330;21.924;2022-08-14T04:25:17;8.45;;;7.32;;
52816;SDS011;38687;43.330;21.924;2022-08-14T04:27:43;8.75;;;7.00;;
52816;SDS011;38687;43.330;21.924;2022-08-14T04:30:09;8.38;;;6.22;;
52816;SDS011;38687;43.330;21.924;2022-08-14T04:32:36;7.30;;;5.40;;
52816;SDS011;38687;43.330;21.924;2022-08-14T04:35:02;8.10;;;6.53;;
52816;SDS011;38687;43.330;21.924;2022-08-14T04:37:28;7.22;;;6.38;;
52816;SDS011;38687;43.330;21.924;2022-08-14T04:40:12;6.93;;;6.15;;
52816;SDS011;38687;43.330;21.924;2022-08-14T04:42:57;7.30;;;6.20;;
52816;SDS011;38687;43.330;21.924;2022-08-14T04:45:42;8.82;;;5.65;;
52816;SDS011;38687;43.330;21.924;2022-08-14T04:48:09;5.90;;;5.30;;
52816;SDS011;38687;43.330;21.924;2022-08-14T04:53:04;5.55;;;5.05;;
52816;SDS011;38687;43.330;21.924;2022-08-14T04:55:30;6.88;;;5.90;;
52816;SDS011;38687;43.330;21.924;2022-08-14T04:57:55;6.20;;;4.57;;
52816;SDS011;38687;43.330;21.924;2022-08-14T05:00:21;5.38;;;4.88;;
52816;SDS011;38687;43.330;21.924;2022-08-14T05:02:49;5.03;;;4.53;;
52816;SDS011;38687;43.330;21.924;2022-08-14T05:05:15;6.38;;;4.88;;
52816;SDS011;38687;43.330;21.924;2022-08-14T05:07:41;5.40;;;4.88;;
52816;SDS011;38687;43.330;21.924;2022-08-14T05:10:06;5.70;;;4.90;;
52816;SDS011;38687;43.330;21.924;2022-08-14T05:12:32;6.72;;;5.20;;
52816;SDS011;38687;43.330;21.924;2022-08-14T05:14:58;9.98;;;6.28;;
52816;SDS011;38687;43.330;21.924;2022-08-14T05:17:24;9.38;;;6.57;;
52816;SDS011;38687;43.330;21.924;2022-08-14T05:19:50;7.53;;;6.20;;
52816;SDS011;38687;43.330;21.924;2022-08-14T05:22:16;7.30;;;6.32;;
52816;SDS011;38687;43.330;21.924;2022-08-14T05:24:43;7.35;;;6.25;;
52816;SDS011;38687;43.330;21.924;2022-08-14T05:27:10;7.45;;;6.00;;
52816;SDS011;38687;43.330;21.924;2022-08-14T05:29:35;6.95;;;6.15;;
52816;SDS011;38687;43.330;21.924;2022-08-14T05:32:04;8.00;;;6.22;;
52816;SDS011;38687;43.330;21.924;2022-08-14T05:34:32;6.45;;;5.82;;
52816;SDS011;38687;43.330;21.924;2022-08-14T05:37:01;7.13;;;6.25;;
52816;SDS011;38687;43.330;21.924;2022-08-14T05:39:27;9.10;;;5.85;;
52816;SDS011;38687;43.330;21.924;2022-08-14T05:41:52;7.25;;;6.13;;
52816;SDS011;38687;43.330;21.924;2022-08-14T05:44:18;8.18;;;6.63;;
52816;SDS011;38687;43.330;21.924;2022-08-14T05:46:44;4.95;;;4.45;;
52816;SDS011;38687;43.330;21.924;2022-08-14T05:49:09;4.25;;;3.85;;
52816;SDS011;38687;43.330;21.924;2022-08-14T05:51:35;4.32;;;3.92;;
52816;SDS011;38687;43.330;21.924;2022-08-14T05:54:00;4.57;;;3.92;;
52816;SDS011;38687;43.330;21.924;2022-08-14T05:56:26;4.75;;;3.88;;
52816;SDS011;38687;43.330;21.924;2022-08-14T05:58:52;4.03;;;3.67;;
52816;SDS011;38687;43.330;21.924;2022-08-14T06:01:17;4.07;;;3.70;;
52816;SDS011;38687;43.330;21.924;2022-08-14T06:03:43;4.65;;;4.25;;
52816;SDS011;38687;43.330;21.924;2022-08-14T06:06:08;5.32;;;4.75;;
52816;SDS011;38687;43.330;21.924;2022-08-14T06:08:34;3.97;;;3.58;;
52816;SDS011;38687;43.330;21.924;2022-08-14T06:11:00;4.50;;;4.03;;
52816;SDS011;38687;43.330;21.924;2022-08-14T06:13:45;4.78;;;4.13;;
52816;SDS011;38687;43.330;21.924;2022-08-14T06:16:15;4.60;;;4.13;;
52816;SDS011;38687;43.330;21.924;2022-08-14T06:18:41;4.32;;;3.92;;
52816;SDS011;38687;43.330;21.924;2022-08-14T06:21:07;6.18;;;4.30;;
52816;SDS011;38687;43.330;21.924;2022-08-14T06:23:32;4.97;;;4.55;;
52816;SDS011;38687;43.330;21.924;2022-08-14T06:25:58;6.10;;;5.47;;
52816;SDS011;38687;43.330;21.924;2022-08-14T06:28:24;5.45;;;4.28;;
52816;SDS011;38687;43.330;21.924;2022-08-14T06:30:51;5.05;;;4.13;;
52816;SDS011;38687;43.330;21.924;2022-08-14T06:33:17;5.38;;;4.85;;
52816;SDS011;38687;43.330;21.924;2022-08-14T06:35:44;5.93;;;4.80;;
52816;SDS011;38687;43.330;21.924;2022-08-14T06:38:13;5.55;;;4.88;;
52816;SDS011;38687;43.330;21.924;2022-08-14T06:40:43;7.63;;;6.68;;
52816;SDS011;38687;43.330;21.924;2022-08-14T06:43:10;6.25;;;5.40;;
52816;SDS011;38687;43.330;21.924;2022-08-14T06:45:38;6.15;;;5.22;;
52816;SDS011;38687;43.330;21.924;2022-08-14T06:48:14;5.68;;;4.80;;
52816;SDS011;38687;43.330;21.924;2022-08-14T06:50:43;6.32;;;5.63;;
52816;SDS011;38687;43.330;21.924;2022-08-14T06:53:09;7.97;;;5.78;;
52816;SDS011;38687;43.330;21.924;2022-08-14T06:55:36;7.13;;;5.90;;
52816;SDS011;38687;43.330;21.924;2022-08-14T06:58:01;10.15;;;5.80;;
52816;SDS011;38687;43.330;21.924;2022-08-14T07:00:27;6.75;;;5.50;;
52816;SDS011;38687;43.330;21.924;2022-08-14T07:02:53;5.93;;;5.22;;
52816;SDS011;38687;43.330;21.924;2022-08-14T07:05:38;7.35;;;5.10;;
52816;SDS011;38687;43.330;21.924;2022-08-14T07:08:10;4.72;;;4.15;;
52816;SDS011;38687;43.330;21.924;2022-08-14T07:10:38;7.47;;;5.82;;
52816;SDS011;38687;43.330;21.924;2022-08-14T07:13:04;5.72;;;4.40;;
52816;SDS011;38687;43.330;21.924;2022-08-14T07:15:30;5.35;;;4.57;;
52816;SDS011;38687;43.330;21.924;2022-08-14T07:17:56;7.28;;;5.25;;
52816;SDS011;38687;43.330;21.924;2022-08-14T07:20:28;6.95;;;5.10;;
52816;SDS011;38687;43.330;21.924;2022-08-14T07:22:54;5.20;;;4.68;;
52816;SDS011;38687;43.330;21.924;2022-08-14T07:25:24;6.55;;;5.07;;
52816;SDS011;38687;43.330;21.924;2022-08-14T07:27:50;6.03;;;5.38;;
52816;SDS011;38687;43.330;21.924;2022-08-14T07:30:15;7.00;;;5.40;;
52816;SDS011;38687;43.330;21.924;2022-08-14T07:32:41;5.28;;;4.78;;
52816;SDS011;38687;43.330;21.924;2022-08-14T07:35:07;5.68;;;4.78;;
52816;SDS011;38687;43.330;21.924;2022-08-14T07:37:33;5.88;;;5.20;;
52816;SDS011;38687;43.330;21.924;2022-08-14T07:39:59;5.68;;;4.97;;
52816;SDS011;38687;43.330;21.924;2022-08-14T07:42:28;6.60;;;4.63;;
52816;SDS011;38687;43.330;21.924;2022-08-14T07:44:56;5.80;;;5.05;;
52816;SDS011;38687;43.330;21.924;2022-08-14T07:47:25;5.68;;;4.28;;
52816;SDS011;38687;43.330;21.924;2022-08-14T07:50:01;7.47;;;5.05;;
52816;SDS011;38687;43.330;21.924;2022-08-14T07:52:29;4.93;;;4.40;;
52816;SDS011;38687;43.330;21.924;2022-08-14T07:54:54;6.60;;;5.05;;
52816;SDS011;38687;43.330;21.924;2022-08-14T07:57:20;5.63;;;4.55;;
52816;SDS011;38687;43.330;21.924;2022-08-14T07:59:45;5.05;;;4.25;;
52816;SDS011;38687;43.330;21.924;2022-08-14T08:02:13;4.93;;;4.35;;
52816;SDS011;38687;43.330;21.924;2022-08-14T08:04:40;5.22;;;4.72;;
52816;SDS011;38687;43.330;21.924;2022-08-14T08:07:08;4.50;;;4.07;;
52816;SDS011;38687;43.330;21.924;2022-08-14T08:09:34;4.70;;;4.25;;
52816;SDS011;38687;43.330;21.924;2022-08-14T08:12:03;4.35;;;3.65;;
52816;SDS011;38687;43.330;21.924;2022-08-14T08:14:31;4.90;;;4.40;;
52816;SDS011;38687;43.330;21.924;2022-08-14T08:16:58;4.63;;;3.97;;
52816;SDS011;38687;43.330;21.924;2022-08-14T08:19:24;4.90;;;3.72;;
52816;SDS011;38687;43.330;21.924;2022-08-14T08:21:49;4.30;;;3.47;;
52816;SDS011;38687;43.330;21.924;2022-08-14T08:24:15;6.35;;;4.18;;
52816;SDS011;38687;43.330;21.924;2022-08-14T08:26:40;3.80;;;3.03;;
52816;SDS011;38687;43.330;21.924;2022-08-14T08:29:06;3.70;;;3.40;;
52816;SDS011;38687;43.330;21.924;2022-08-14T08:31:31;3.88;;;3.20;;
52816;SDS011;38687;43.330;21.924;2022-08-14T08:33:57;3.90;;;3.38;;
52816;SDS011;38687;43.330;21.924;2022-08-14T08:36:22;3.35;;;3.05;;
52816;SDS011;38687;43.330;21.924;2022-08-14T08:38:48;4.68;;;3.60;;
52816;SDS011;38687;43.330;21.924;2022-08-14T08:41:14;3.83;;;3.35;;
52816;SDS011;38687;43.330;21.924;2022-08-14T08:43:40;3.92;;;3.28;;
52816;SDS011;38687;43.330;21.924;2022-08-14T08:46:10;4.63;;;3.45;;
52816;SDS011;38687;43.330;21.924;2022-08-14T08:48:47;4.20;;;3.70;;
52816;SDS011;38687;43.330;21.924;2022-08-14T08:53:56;4.07;;;3.33;;
52816;SDS011;38687;43.330;21.924;2022-08-14T08:56:35;5.85;;;3.50;;
52816;SDS011;38687;43.330;21.924;2022-08-14T08:59:14;8.88;;;3.90;;
52816;SDS011;38687;43.330;21.924;2022-08-14T09:02:06;3.28;;;2.70;;
52816;SDS011;38687;43.330;21.924;2022-08-14T09:04:40;3.88;;;3.33;;
52816;SDS011;38687;43.330;21.924;2022-08-14T09:07:08;3.92;;;3.50;;
52816;SDS011;38687;43.330;21.924;2022-08-14T09:09:34;3.20;;;2.90;;
52816;SDS011;38687;43.330;21.924;2022-08-14T09:12:15;3.30;;;3.00;;
52816;SDS011;38687;43.330;21.924;2022-08-14T09:14:41;3.92;;;3.00;;
52816;SDS011;38687;43.330;21.924;2022-08-14T09:17:06;4.00;;;3.38;;
52816;SDS011;38687;43.330;21.924;2022-08-14T09:19:34;3.65;;;3.30;;
52816;SDS011;38687;43.330;21.924;2022-08-14T09:22:01;3.85;;;3.35;;
52816;SDS011;38687;43.330;21.924;2022-08-14T09:24:27;3.72;;;3.42;;
52816;SDS011;38687;43.330;21.924;2022-08-14T09:26:55;4.07;;;3.67;;
52816;SDS011;38687;43.330;21.924;2022-08-14T09:29:20;3.78;;;2.78;;
52816;SDS011;38687;43.330;21.924;2022-08-14T09:31:48;3.20;;;2.90;;
52816;SDS011;38687;43.330;21.924;2022-08-14T09:34:19;3.28;;;2.97;;
52816;SDS011;38687;43.330;21.924;2022-08-14T09:45:17;3.67;;;3.38;;
52816;SDS011;38687;43.330;21.924;2022-08-14T09:50:18;4.15;;;3.28;;
52816;SDS011;38687;43.330;21.924;2022-08-14T09:52:49;3.45;;;3.15;;
52816;SDS011;38687;43.330;21.924;2022-08-14T09:55:21;3.20;;;2.90;;
52816;SDS011;38687;43.330;21.924;2022-08-14T09:57:48;4.50;;;3.67;;
52816;SDS011;38687;43.330;21.924;2022-08-14T10:00:15;4.72;;;3.55;;
52816;SDS011;38687;43.330;21.924;2022-08-14T10:02:55;3.47;;;3.17;;
52816;SDS011;38687;43.330;21.924;2022-08-14T10:05:31;3.30;;;3.10;;
52816;SDS011;38687;43.330;21.924;2022-08-14T10:07:58;3.55;;;3.25;;
52816;SDS011;38687;43.330;21.924;2022-08-14T10:10:35;3.47;;;3.17;;
52816;SDS011;38687;43.330;21.924;2022-08-14T10:13:03;3.90;;;3.60;;
52816;SDS011;38687;43.330;21.924;2022-08-14T10:15:30;4.18;;;3.88;;
52816;SDS011;38687;43.330;21.924;2022-08-14T10:20:34;4.00;;;3.70;;
52816;SDS011;38687;43.330;21.924;2022-08-14T10:23:15;4.30;;;3.90;;
52816;SDS011;38687;43.330;21.924;2022-08-14T10:25:44;8.05;;;4.30;;
52816;SDS011;38687;43.330;21.924;2022-08-14T10:28:15;3.90;;;3.60;;
52816;SDS011;38687;43.330;21.924;2022-08-14T10:30:42;3.90;;;3.53;;
52816;SDS011;38687;43.330;21.924;2022-08-14T10:33:22;4.18;;;3.78;;
52816;SDS011;38687;43.330;21.924;2022-08-14T10:35:48;4.50;;;3.65;;
52816;SDS011;38687;43.330;21.924;2022-08-14T10:38:13;4.30;;;3.90;;
52816;SDS011;38687;43.330;21.924;2022-08-14T10:43:38;3.72;;;3.42;;
52816;SDS011;38687;43.330;21.924;2022-08-14T10:46:11;4.38;;;4.00;;
52816;SDS011;38687;43.330;21.924;2022-08-14T10:48:38;3.65;;;3.35;;
52816;SDS011;38687;43.330;21.924;2022-08-14T10:51:03;3.80;;;3.50;;
52816;SDS011;38687;43.330;21.924;2022-08-14T10:53:30;4.40;;;4.00;;
52816;SDS011;38687;43.330;21.924;2022-08-14T10:55:58;3.78;;;3.47;;
52816;SDS011;38687;43.330;21.924;2022-08-14T10:58:26;4.88;;;3.55;;
52816;SDS011;38687;43.330;21.924;2022-08-14T11:00:55;4.20;;;3.85;;
52816;SDS011;38687;43.330;21.924;2022-08-14T11:03:21;4.35;;;3.38;;
52816;SDS011;38687;43.330;21.924;2022-08-14T11:05:49;4.57;;;4.18;;
52816;SDS011;38687;43.330;21.924;2022-08-14T11:08:17;5.18;;;4.68;;
52816;SDS011;38687;43.330;21.924;2022-08-14T11:10:53;5.32;;;4.45;;
52816;SDS011;38687;43.330;21.924;2022-08-14T11:13:24;4.78;;;4.15;;
52816;SDS011;38687;43.330;21.924;2022-08-14T11:15:55;5.57;;;5.00;;
52816;SDS011;38687;43.330;21.924;2022-08-14T11:18:21;5.47;;;4.55;;
52816;SDS011;38687;43.330;21.924;2022-08-14T11:20:48;4.53;;;4.07;;
52816;SDS011;38687;43.330;21.924;2022-08-14T11:23:15;4.40;;;4.00;;
52816;SDS011;38687;43.330;21.924;2022-08-14T11:25:43;4.30;;;3.90;;
52816;SDS011;38687;43.330;21.924;2022-08-14T11:28:10;6.55;;;4.63;;
52816;SDS011;38687;43.330;21.924;2022-08-14T11:30:38;4.68;;;4.18;;
52816;SDS011;38687;43.330;21.924;2022-08-14T11:33:05;5.20;;;4.70;;
52816;SDS011;38687;43.330;21.924;2022-08-14T11:35:31;6.38;;;4.82;;
52816;SDS011;38687;43.330;21.924;2022-08-14T11:38:01;7.05;;;5.60;;
52816;SDS011;38687;43.330;21.924;2022-08-14T11:40:30;5.57;;;5.07;;
52816;SDS011;38687;43.330;21.924;2022-08-14T11:42:59;6.55;;;5.82;;
52816;SDS011;38687;43.330;21.924;2022-08-14T11:45:26;5.78;;;5.22;;
52816;SDS011;38687;43.330;21.924;2022-08-14T11:47:56;7.80;;;6.15;;
52816;SDS011;38687;43.330;21.924;2022-08-14T11:50:22;6.45;;;5.65;;
52816;SDS011;38687;43.330;21.924;2022-08-14T11:52:49;6.30;;;5.70;;
52816;SDS011;38687;43.330;21.924;2022-08-14T11:55:16;6.40;;;5.47;;
52816;SDS011;38687;43.330;21.924;2022-08-14T11:57:42;5.30;;;4.80;;
52816;SDS011;38687;43.330;21.924;2022-08-14T12:00:13;6.68;;;6.07;;
52816;SDS011;38687;43.330;21.924;2022-08-14T12:05:37;6.05;;;5.45;;
52816;SDS011;38687;43.330;21.924;2022-08-14T12:08:06;5.90;;;5.30;;
52816;SDS011;38687;43.330;21.924;2022-08-14T12:10:33;6.55;;;5.38;;
52816;SDS011;38687;43.330;21.924;2022-08-14T12:15:44;5.60;;;5.10;;
52816;SDS011;38687;43.330;21.924;2022-08-14T12:18:12;5.35;;;4.85;;
52816;SDS011;38687;43.330;21.924;2022-08-14T12:20:39;4.63;;;4.18;;
52816;SDS011;38687;43.330;21.924;2022-08-14T12:23:21;4.88;;;4.07;;
52816;SDS011;38687;43.330;21.924;2022-08-14T12:25:48;4.78;;;4.15;;
52816;SDS011;38687;43.330;21.924;2022-08-14T12:28:14;5.22;;;4.57;;
52816;SDS011;38687;43.330;21.924;2022-08-14T12:30:41;4.68;;;4.18;;
52816;SDS011;38687;43.330;21.924;2022-08-14T12:33:28;4.93;;;4.47;;
52816;SDS011;38687;43.330;21.924;2022-08-14T12:35:57;4.25;;;3.85;;
52816;SDS011;38687;43.330;21.924;2022-08-14T12:38:31;7.47;;;5.10;;
52816;SDS011;38687;43.330;21.924;2022-08-14T12:40:57;5.13;;;4.57;;
52816;SDS011;38687;43.330;21.924;2022-08-14T12:43:22;4.50;;;4.10;;
52816;SDS011;38687;43.330;21.924;2022-08-14T12:45:52;4.80;;;4.40;;
52816;SDS011;38687;43.330;21.924;2022-08-14T12:48:21;4.03;;;3.65;;
52816;SDS011;38687;43.330;21.924;2022-08-14T12:50:48;2.88;;;2.67;;
52816;SDS011;38687;43.330;21.924;2022-08-14T12:53:17;3.55;;;3.25;;
52816;SDS011;38687;43.330;21.924;2022-08-14T12:55:43;3.50;;;3.20;;
52816;SDS011;38687;43.330;21.924;2022-08-14T12:58:09;3.58;;;3.28;;
52816;SDS011;38687;43.330;21.924;2022-08-14T13:00:36;3.05;;;2.80;;
52816;SDS011;38687;43.330;21.924;2022-08-14T13:03:22;3.25;;;2.90;;
52816;SDS011;38687;43.330;21.924;2022-08-14T13:05:51;3.25;;;2.95;;
52816;SDS011;38687;43.330;21.924;2022-08-14T13:08:17;2.92;;;2.72;;
52816;SDS011;38687;43.330;21.924;2022-08-14T13:10:43;2.92;;;2.60;;
52816;SDS011;38687;43.330;21.924;2022-08-14T13:13:11;3.72;;;3.42;;
52816;SDS011;38687;43.330;21.924;2022-08-14T13:15:42;3.88;;;3.58;;
52816;SDS011;38687;43.330;21.924;2022-08-14T13:18:15;4.20;;;3.75;;
52816;SDS011;38687;43.330;21.924;2022-08-14T13:20:41;4.32;;;3.95;;
52816;SDS011;38687;43.330;21.924;2022-08-14T13:23:09;4.53;;;4.10;;
52816;SDS011;38687;43.330;21.924;2022-08-14T13:25:37;4.03;;;3.55;;
52816;SDS011;38687;43.330;21.924;2022-08-14T13:28:04;3.83;;;3.40;;
52816;SDS011;38687;43.330;21.924;2022-08-14T13:30:30;4.07;;;3.78;;
52816;SDS011;38687;43.330;21.924;2022-08-14T13:32:57;3.53;;;3.22;;
52816;SDS011;38687;43.330;21.924;2022-08-14T13:35:23;4.25;;;3.85;;
52816;SDS011;38687;43.330;21.924;2022-08-14T13:37:49;3.63;;;3.33;;
52816;SDS011;38687;43.330;21.924;2022-08-14T13:40:19;3.80;;;3.40;;
52816;SDS011;38687;43.330;21.924;2022-08-14T13:42:47;3.47;;;3.17;;
52816;SDS011;38687;43.330;21.924;2022-08-14T13:45:15;9.85;;;4.30;;
52816;SDS011;38687;43.330;21.924;2022-08-14T13:47:40;3.92;;;3.63;;
52816;SDS011;38687;43.330;21.924;2022-08-14T13:50:07;4.25;;;3.58;;
52816;SDS011;38687;43.330;21.924;2022-08-14T13:52:46;5.45;;;3.95;;
52816;SDS011;38687;43.330;21.924;2022-08-14T13:55:18;4.72;;;4.22;;
52816;SDS011;38687;43.330;21.924;2022-08-14T13:57:46;4.60;;;4.20;;
52816;SDS011;38687;43.330;21.924;2022-08-14T14:00:13;4.75;;;4.28;;
52816;SDS011;38687;43.330;21.924;2022-08-14T14:02:39;4.72;;;4.22;;
52816;SDS011;38687;43.330;21.924;2022-08-14T14:05:06;4.57;;;3.97;;
52816;SDS011;38687;43.330;21.924;2022-08-14T14:07:33;5.45;;;4.90;;
52816;SDS011;38687;43.330;21.924;2022-08-14T14:10:00;5.80;;;5.30;;
52816;SDS011;38687;43.330;21.924;2022-08-14T14:12:27;6.00;;;4.97;;
52816;SDS011;38687;43.330;21.924;2022-08-14T14:14:53;6.47;;;5.78;;
52816;SDS011;38687;43.330;21.924;2022-08-14T14:17:19;6.25;;;5.65;;
52816;SDS011;38687;43.330;21.924;2022-08-14T14:19:49;7.80;;;6.15;;
52816;SDS011;38687;43.330;21.924;2022-08-14T14:22:15;6.22;;;5.38;;
52816;SDS011;38687;43.330;21.924;2022-08-14T14:24:41;7.38;;;5.78;;
52816;SDS011;38687;43.330;21.924;2022-08-14T14:27:09;7.10;;;5.38;;
52816;SDS011;38687;43.330;21.924;2022-08-14T14:29:35;5.65;;;5.07;;
52816;SDS011;38687;43.330;21.924;2022-08-14T14:32:01;5.65;;;5.15;;
52816;SDS011;38687;43.330;21.924;2022-08-14T14:34:28;5.22;;;4.47;;
52816;SDS011;38687;43.330;21.924;2022-08-14T14:36:57;5.25;;;4.75;;
52816;SDS011;38687;43.330;21.924;2022-08-14T14:39:27;7.82;;;5.72;;
52816;SDS011;38687;43.330;21.924;2022-08-14T14:41:54;6.03;;;5.43;;
52816;SDS011;38687;43.330;21.924;2022-08-14T14:44:22;4.97;;;4.53;;
52816;SDS011;38687;43.330;21.924;2022-08-14T14:46:50;5.78;;;5.00;;
52816;SDS011;38687;43.330;21.924;2022-08-14T14:49:20;4.72;;;4.07;;
52816;SDS011;38687;43.330;21.924;2022-08-14T14:51:46;6.97;;;5.40;;
52816;SDS011;38687;43.330;21.924;2022-08-14T14:54:12;7.10;;;6.03;;
52816;SDS011;38687;43.330;21.924;2022-08-14T14:56:41;6.07;;;5.47;;
52816;SDS011;38687;43.330;21.924;2022-08-14T14:59:07;7.43;;;5.70;;
52816;SDS011;38687;43.330;21.924;2022-08-14T15:01:36;6.05;;;5.30;;
52816;SDS011;38687;43.330;21.924;2022-08-14T15:04:02;6.90;;;5.57;;